createdAt,value
2019-01-24T00:00:48.295Z,46.17
2019-01-24T00:03:17.217Z,47.53
2019-01-24T00:05:46.146Z,48.03
2019-01-24T00:08:15.133Z,47.27
2019-01-24T00:10:44.078Z,43.87
2019-01-24T00:13:13.036Z,43.90
2019-01-24T00:15:42.053Z,45.90
2019-01-24T00:18:10.932Z,46.80
2019-01-24T00:20:39.974Z,47.27
2019-01-24T00:23:08.944Z,48.17
2019-01-24T00:25:37.843Z,47.93
2019-01-24T00:28:06.804Z,50.03
2019-01-24T00:30:35.762Z,46.83
2019-01-24T00:33:04.935Z,48.10
2019-01-24T00:35:33.967Z,46.00
2019-01-24T00:38:02.981Z,45.13
2019-01-24T00:40:31.956Z,45.60
2019-01-24T00:43:00.865Z,43.93
2019-01-24T00:45:29.773Z,42.87
2019-01-24T00:47:58.667Z,43.43
2019-01-24T00:50:27.571Z,40.70
2019-01-24T00:52:56.459Z,39.87
2019-01-24T00:55:25.354Z,39.93
2019-01-24T00:57:55.698Z,40.73
2019-01-24T01:00:25.577Z,32.53
2019-01-24T01:02:54.553Z,39.83
2019-01-24T01:05:23.569Z,36.63
2019-01-24T01:07:52.539Z,34.73
2019-01-24T01:10:21.947Z,38.93
2019-01-24T01:12:50.872Z,39.13
2019-01-24T01:15:19.860Z,40.27
2019-01-24T01:17:49.111Z,37.90
2019-01-24T01:20:20.275Z,37.80
2019-01-24T01:22:49.310Z,37.30
2019-01-24T01:25:18.310Z,39.20
2019-01-24T01:27:47.360Z,37.90
2019-01-24T01:30:21.190Z,37.43
2019-01-24T01:32:50.436Z,38.43
2019-01-24T01:35:19.442Z,36.67
2019-01-24T01:37:48.525Z,34.40
2019-01-24T01:40:18.064Z,35.80
2019-01-24T01:42:47.164Z,37.20
2019-01-24T01:45:18.306Z,34.50
2019-01-24T01:47:47.220Z,34.80
2019-01-24T01:50:20.778Z,37.00
2019-01-24T01:52:49.825Z,34.33
2019-01-24T01:55:18.789Z,32.63
2019-01-24T01:57:47.733Z,34.93
2019-01-24T02:00:21.693Z,35.33
2019-01-24T02:02:50.856Z,34.63
2019-01-24T02:05:19.970Z,35.00
2019-01-24T02:07:49.257Z,35.30
2019-01-24T02:10:20.231Z,33.93
2019-01-24T02:12:49.525Z,32.43
2019-01-24T02:15:18.717Z,32.77
2019-01-24T02:17:47.657Z,33.33
2019-01-24T02:20:23.659Z,34.77
2019-01-24T02:22:53.281Z,30.93
2019-01-24T02:25:22.401Z,33.90
2019-01-24T02:27:51.446Z,34.07
2019-01-24T02:30:22.844Z,33.93
2019-01-24T02:32:51.784Z,35.87
2019-01-24T02:35:20.768Z,34.83
2019-01-24T02:37:49.848Z,35.93
2019-01-24T02:40:18.742Z,34.47
2019-01-24T02:42:47.613Z,33.67
2019-01-24T02:45:17.996Z,35.37
2019-01-24T02:47:46.981Z,35.00
2019-01-24T02:50:17.255Z,34.63
2019-01-24T02:52:46.207Z,34.83
2019-01-24T02:55:15.669Z,30.30
2019-01-24T02:57:44.858Z,33.77
2019-01-24T03:00:16.327Z,31.27
2019-01-24T03:02:45.377Z,30.30
2019-01-24T03:05:16.234Z,31.70
2019-01-24T03:07:45.126Z,30.83
2019-01-24T03:10:14.635Z,32.00
2019-01-24T03:12:43.626Z,29.70
2019-01-24T03:15:14.219Z,30.53
2019-01-24T03:17:43.201Z,29.93
2019-01-24T03:20:12.277Z,31.43
2019-01-24T03:22:41.281Z,30.17
2019-01-24T03:25:10.521Z,28.00
2019-01-24T03:27:39.406Z,27.03
2019-01-24T03:30:11.196Z,28.80
2019-01-24T03:32:40.168Z,29.77
2019-01-24T03:35:12.370Z,29.60
2019-01-24T03:37:41.249Z,29.57
2019-01-24T03:40:11.923Z,25.77
2019-01-24T03:42:40.831Z,26.90
2019-01-24T03:45:11.723Z,24.63
2019-01-24T03:47:40.570Z,26.73
2019-01-24T03:50:12.058Z,25.97
2019-01-24T03:52:40.943Z,27.43
2019-01-24T03:55:10.224Z,25.53
2019-01-24T03:57:39.195Z,25.37
2019-01-24T04:00:11.401Z,25.90
2019-01-24T04:02:40.385Z,27.20
2019-01-24T04:05:12.079Z,27.80
2019-01-24T04:07:40.081Z,25.13
2019-01-24T04:10:11.703Z,28.30
2019-01-24T04:12:40.579Z,25.10
2019-01-24T04:15:11.212Z,26.23
2019-01-24T04:17:40.177Z,25.80
2019-01-24T04:20:09.653Z,27.00
2019-01-24T04:22:38.599Z,24.70
2019-01-24T04:25:08.181Z,25.17
2019-01-24T04:27:37.004Z,26.13
2019-01-24T04:30:08.096Z,24.73
2019-01-24T04:32:36.999Z,25.47
2019-01-24T04:35:06.185Z,23.30
2019-01-24T04:37:35.091Z,26.37
2019-01-24T04:40:04.347Z,23.87
2019-01-24T04:42:33.314Z,24.20
2019-01-24T04:45:02.155Z,25.47
2019-01-24T04:47:31.089Z,25.27
2019-01-24T04:50:00.016Z,24.90
2019-01-24T04:52:29.083Z,25.00
2019-01-24T04:54:57.909Z,26.10
2019-01-24T04:57:26.809Z,24.20
2019-01-24T04:59:55.697Z,24.03
2019-01-24T05:02:24.779Z,24.83
2019-01-24T05:04:53.650Z,23.47
2019-01-24T05:07:22.566Z,24.33
2019-01-24T05:09:51.532Z,24.00
2019-01-24T05:12:20.511Z,23.67
2019-01-24T05:14:49.409Z,21.73
2019-01-24T05:17:18.344Z,23.50
2019-01-24T05:19:47.147Z,23.00
2019-01-24T05:22:16.056Z,24.57
2019-01-24T05:24:45.050Z,23.80
2019-01-24T05:27:14.045Z,22.77
2019-01-24T05:29:43.015Z,24.03
2019-01-24T05:32:11.921Z,24.37
2019-01-24T05:34:40.779Z,24.13
2019-01-24T05:37:09.716Z,24.83
2019-01-24T05:39:38.610Z,24.93
2019-01-24T05:42:07.549Z,24.93
2019-01-24T05:44:36.414Z,23.97
2019-01-24T05:47:05.383Z,24.33
2019-01-24T05:49:34.263Z,23.97
2019-01-24T05:52:03.146Z,22.13
2019-01-24T05:54:32.051Z,24.43
2019-01-24T05:57:00.849Z,23.87
2019-01-24T05:59:30.069Z,24.13
2019-01-24T06:01:59.603Z,24.87
2019-01-24T06:04:28.576Z,24.97
2019-01-24T06:06:57.438Z,24.60
2019-01-24T06:09:26.312Z,25.53
2019-01-24T06:11:55.291Z,24.77
2019-01-24T06:14:24.186Z,26.80
2019-01-24T06:16:53.178Z,26.07
2019-01-24T06:19:22.189Z,28.40
2019-01-24T06:21:51.117Z,27.00
2019-01-24T06:24:21.722Z,26.20
2019-01-24T06:26:50.702Z,25.87
2019-01-24T06:29:19.580Z,27.93
2019-01-24T06:31:48.524Z,25.47
2019-01-24T06:34:17.397Z,25.93
2019-01-24T06:36:46.395Z,27.77
2019-01-24T06:39:15.378Z,27.10
2019-01-24T06:41:44.322Z,27.67
2019-01-24T06:44:13.192Z,26.60
2019-01-24T06:46:42.083Z,29.50
2019-01-24T06:49:11.002Z,28.07
2019-01-24T06:51:40.014Z,26.67
2019-01-24T06:54:08.959Z,28.63
2019-01-24T06:56:37.897Z,27.50
2019-01-24T06:59:06.914Z,28.37
2019-01-24T07:02:37.227Z,26.67
2019-01-24T07:05:06.447Z,27.93
2019-01-24T07:07:35.468Z,26.13
2019-01-24T07:10:05.338Z,25.97
2019-01-24T07:12:34.816Z,27.47
2019-01-24T07:15:08.017Z,26.57
2019-01-24T07:17:39.276Z,26.73
2019-01-24T07:20:08.925Z,28.10
2019-01-24T07:22:42.879Z,28.33
2019-01-24T07:25:17.249Z,28.57
2019-01-24T07:27:47.592Z,26.93
2019-01-24T07:30:17.039Z,27.73
2019-01-24T07:32:46.074Z,25.63
2019-01-24T07:35:16.228Z,27.70
2019-01-24T07:37:45.279Z,27.73
2019-01-24T07:40:15.740Z,27.53
2019-01-24T07:42:44.843Z,27.20
2019-01-24T07:45:34.159Z,28.20
2019-01-24T07:48:03.157Z,26.33
2019-01-24T07:50:32.192Z,28.30
2019-01-24T07:53:01.240Z,26.93
2019-01-24T07:55:30.176Z,28.00
2019-01-24T07:57:59.069Z,27.90
2019-01-24T08:00:28.650Z,29.33
2019-01-24T08:02:57.614Z,28.93
2019-01-24T08:05:27.096Z,28.20
2019-01-24T08:07:55.974Z,27.97
2019-01-24T08:10:25.184Z,28.23
2019-01-24T08:12:54.219Z,27.73
2019-01-24T08:15:23.212Z,27.80
2019-01-24T08:17:52.199Z,28.00
2019-01-24T08:20:23.201Z,29.47
2019-01-24T08:22:52.084Z,27.93
2019-01-24T08:25:20.999Z,29.67
2019-01-24T08:27:49.930Z,28.50
2019-01-24T08:30:21.251Z,30.83
2019-01-24T08:32:50.206Z,30.07
2019-01-24T08:35:19.274Z,30.53
2019-01-24T08:37:48.277Z,28.33
2019-01-24T08:40:17.878Z,28.57
2019-01-24T08:42:46.898Z,28.53
2019-01-24T08:45:16.197Z,28.33
2019-01-24T08:47:45.162Z,31.50
2019-01-24T08:50:16.386Z,30.17
2019-01-24T08:52:45.566Z,30.23
2019-01-24T08:55:20.627Z,29.17
2019-01-24T08:57:49.816Z,28.93
2019-01-24T09:00:19.493Z,30.57
2019-01-24T09:02:49.015Z,28.57
2019-01-24T09:05:18.419Z,30.20
2019-01-24T09:07:47.398Z,26.80
2019-01-24T09:10:19.258Z,29.97
2019-01-24T09:12:48.231Z,27.93
2019-01-24T09:15:17.238Z,27.30
2019-01-24T09:17:46.123Z,25.47
2019-01-24T09:20:15.974Z,23.53
2019-01-24T09:22:44.953Z,26.40
2019-01-24T09:25:14.233Z,24.60
2019-01-24T09:27:43.281Z,24.37
2019-01-24T09:30:15.190Z,27.13
2019-01-24T09:32:44.216Z,25.27
2019-01-24T09:35:13.332Z,25.53
2019-01-24T09:37:42.280Z,27.37
2019-01-24T09:40:12.313Z,25.13
2019-01-24T09:46:09.189Z,25.50
2019-01-24T09:48:38.196Z,27.17
2019-01-24T09:51:07.151Z,28.30
2019-01-24T09:53:36.189Z,26.87
2019-01-24T09:56:05.653Z,27.20
2019-01-24T09:58:34.596Z,27.17
2019-01-24T10:01:03.601Z,26.90
2019-01-24T10:03:32.617Z,28.33
2019-01-24T10:06:01.611Z,29.57
2019-01-24T10:08:30.504Z,27.83
2019-01-24T10:10:59.441Z,27.83
2019-01-24T10:13:28.414Z,28.60
2019-01-24T10:15:57.440Z,29.07
2019-01-24T10:18:26.325Z,29.47
2019-01-24T10:20:55.531Z,29.57
2019-01-24T10:23:24.551Z,28.43
2019-01-24T10:25:53.540Z,27.83
2019-01-24T10:28:22.461Z,28.33
2019-01-24T10:30:51.480Z,27.43
2019-01-24T10:33:20.426Z,28.63
2019-01-24T10:35:49.398Z,28.33
2019-01-24T10:38:18.325Z,29.03
2019-01-24T10:40:47.226Z,28.80
2019-01-24T10:43:16.164Z,28.97
2019-01-24T10:45:45.079Z,29.73
2019-01-24T10:48:14.068Z,28.83
2019-01-24T10:50:43.056Z,29.43
2019-01-24T10:53:12.048Z,30.40
2019-01-24T10:55:41.021Z,29.63
2019-01-24T10:58:10.028Z,30.57
2019-01-24T11:00:41.068Z,29.50
2019-01-24T11:03:15.574Z,30.77
2019-01-24T11:05:44.825Z,29.63
2019-01-24T11:08:13.769Z,30.47
2019-01-24T11:11:01.774Z,31.37
2019-01-24T11:13:49.874Z,30.13
2019-01-24T11:16:38.026Z,29.60
2019-01-24T11:19:06.812Z,29.60
2019-01-24T11:21:35.764Z,28.40
2019-01-24T11:24:04.770Z,28.90
2019-01-24T11:27:15.822Z,30.53
2019-01-24T11:29:44.788Z,28.83
2019-01-24T11:32:13.679Z,29.07
2019-01-24T11:34:42.596Z,29.70
2019-01-24T11:37:11.578Z,28.03
2019-01-24T11:39:40.450Z,29.07
2019-01-24T11:42:09.443Z,29.20
2019-01-24T11:44:38.409Z,30.37
2019-01-24T11:47:07.365Z,30.70
2019-01-24T11:49:36.286Z,29.77
2019-01-24T11:52:05.316Z,30.97
2019-01-24T11:54:34.282Z,28.13
2019-01-24T11:57:03.260Z,29.43
2019-01-24T11:59:32.192Z,28.17
2019-01-24T12:02:01.118Z,28.23
2019-01-24T12:04:30.051Z,30.03
2019-01-24T12:07:04.105Z,29.20
2019-01-24T12:09:29.700Z,30.23
2019-01-24T12:11:58.591Z,30.67
2019-01-24T12:14:27.516Z,29.93
2019-01-24T12:16:56.439Z,30.27
2019-01-24T12:19:25.411Z,30.07
2019-01-24T12:21:54.395Z,31.97
2019-01-24T12:24:23.285Z,30.10
2019-01-24T12:26:52.270Z,29.70
2019-01-24T12:29:21.141Z,28.07
2019-01-24T12:31:50.176Z,26.60
2019-01-24T12:34:19.236Z,28.67
2019-01-24T12:36:48.241Z,28.20
2019-01-24T12:39:17.151Z,30.33
2019-01-24T12:41:46.069Z,28.70
2019-01-24T12:44:15.041Z,27.57
2019-01-24T12:46:43.919Z,29.17
2019-01-24T12:49:12.865Z,29.00
2019-01-24T12:51:41.818Z,27.77
2019-01-24T12:54:10.754Z,28.33
2019-01-24T12:56:39.714Z,28.40
2019-01-24T12:59:08.608Z,29.43
2019-01-24T13:01:37.525Z,28.97
2019-01-24T13:04:06.532Z,30.17
2019-01-24T13:06:35.534Z,28.87
2019-01-24T13:09:07.366Z,28.47
2019-01-24T13:11:36.290Z,28.50
2019-01-24T13:14:05.490Z,28.77
2019-01-24T13:16:34.429Z,27.83
2019-01-24T13:19:03.424Z,28.87
2019-01-24T13:21:32.401Z,28.87
2019-01-24T13:24:01.440Z,30.23
2019-01-24T13:26:30.460Z,28.90
2019-01-24T13:28:59.399Z,28.00
2019-01-24T13:31:28.445Z,28.83
2019-01-24T13:33:57.429Z,28.10
2019-01-24T13:36:26.417Z,29.00
2019-01-24T13:38:55.385Z,28.40
2019-01-24T13:41:24.287Z,28.03
2019-01-24T13:43:53.206Z,28.20
2019-01-24T13:46:22.227Z,27.60
2019-01-24T13:48:51.213Z,27.50
2019-01-24T13:51:20.223Z,30.90
2019-01-24T13:53:49.208Z,29.27
2019-01-24T13:56:18.148Z,29.50
2019-01-24T13:58:47.134Z,27.23
2019-01-24T14:01:16.072Z,28.87
2019-01-24T14:03:53.251Z,27.43
2019-01-24T14:06:22.145Z,29.13
2019-01-24T14:08:51.172Z,27.47
2019-01-24T14:11:20.077Z,28.80
2019-01-24T14:13:49.056Z,27.77
2019-01-24T14:16:18.052Z,28.73
2019-01-24T14:18:47.008Z,27.30
2019-01-24T14:21:15.940Z,27.57
2019-01-24T14:23:44.907Z,27.87
2019-01-24T14:26:13.896Z,27.83
2019-01-24T14:28:42.856Z,28.23
2019-01-24T14:31:11.868Z,29.13
2019-01-24T14:33:40.932Z,28.60
2019-01-24T14:36:09.848Z,29.67
2019-01-24T14:38:41.847Z,27.53
2019-01-24T14:41:10.776Z,27.80
2019-01-24T14:43:39.741Z,27.70
2019-01-24T14:46:08.647Z,26.87
2019-01-24T14:48:37.559Z,28.07
2019-01-24T14:51:06.624Z,28.20
2019-01-24T14:53:35.631Z,28.13
2019-01-24T14:56:05.030Z,27.50
2019-01-24T14:58:33.930Z,27.83
2019-01-24T15:01:09.629Z,28.17
2019-01-24T15:03:38.925Z,28.03
2019-01-24T15:06:07.960Z,26.83
2019-01-24T15:08:36.824Z,27.73
2019-01-24T15:11:06.193Z,27.53
2019-01-24T15:13:35.213Z,26.73
2019-01-24T15:16:04.908Z,27.70
2019-01-24T15:18:33.913Z,27.70
2019-01-24T15:21:03.099Z,28.50
2019-01-24T15:23:32.009Z,26.73
2019-01-24T15:26:00.999Z,28.47
2019-01-24T15:28:29.933Z,27.17
2019-01-24T15:30:58.904Z,26.03
2019-01-24T15:33:27.961Z,27.63
2019-01-24T15:35:56.935Z,27.30
2019-01-24T15:38:25.945Z,29.20
2019-01-24T15:40:54.966Z,26.57
2019-01-24T15:43:24.045Z,26.53
2019-01-24T15:45:53.179Z,25.20
2019-01-24T15:48:22.082Z,26.77
2019-01-24T15:50:50.995Z,26.80
2019-01-24T15:53:19.991Z,26.80
2019-01-24T15:55:48.907Z,26.63
2019-01-24T15:58:17.943Z,28.90
2019-01-24T16:00:46.956Z,26.80
2019-01-24T16:03:16.474Z,28.10
2019-01-24T16:05:45.449Z,26.50
2019-01-24T16:08:14.434Z,26.07
2019-01-24T16:10:43.246Z,27.77
2019-01-24T16:13:12.443Z,28.13
2019-01-24T16:15:41.468Z,27.67
2019-01-24T16:18:11.713Z,25.60
2019-01-24T16:20:40.784Z,25.17
2019-01-24T16:23:09.773Z,25.13
2019-01-24T16:25:39.167Z,27.00
2019-01-24T16:28:08.242Z,28.17
2019-01-24T16:30:38.198Z,27.37
2019-01-24T16:33:09.847Z,27.17
2019-01-24T16:35:39.769Z,26.93
2019-01-24T16:38:09.625Z,26.60
2019-01-24T16:40:38.943Z,26.67
2019-01-24T16:43:07.922Z,27.97
2019-01-24T16:45:36.970Z,27.37
2019-01-24T16:48:06.665Z,28.07
2019-01-24T16:50:35.660Z,27.40
2019-01-24T16:53:04.798Z,26.63
2019-01-24T16:55:39.889Z,27.43
2019-01-24T16:58:09.588Z,26.90
2019-01-24T17:01:11.234Z,28.27
2019-01-24T17:03:40.233Z,26.17
2019-01-24T17:06:09.288Z,25.23
2019-01-24T17:08:38.242Z,27.00
2019-01-24T17:11:07.360Z,27.03
2019-01-24T17:13:36.328Z,28.57
2019-01-24T17:16:05.639Z,27.63
2019-01-24T17:18:34.608Z,25.00
2019-01-24T17:21:03.817Z,27.57
2019-01-24T17:23:32.698Z,27.43
2019-01-24T17:26:20.815Z,27.20
2019-01-24T17:29:08.952Z,27.17
2019-01-24T17:31:56.810Z,28.17
2019-01-24T17:34:44.749Z,27.60
2019-01-24T17:43:49.524Z,28.67
2019-01-24T17:46:18.607Z,28.27
2019-01-24T17:48:47.613Z,26.03
2019-01-24T17:51:16.533Z,29.90
2019-01-24T17:53:45.550Z,30.20
2019-01-24T17:56:14.536Z,30.10
2019-01-24T17:58:44.286Z,35.47
2019-01-24T18:01:13.381Z,27.33
2019-01-24T18:03:42.642Z,26.83
2019-01-24T18:06:11.828Z,25.87
2019-01-24T18:08:40.807Z,27.00
2019-01-24T18:11:09.777Z,23.03
2019-01-24T18:13:38.890Z,25.27
2019-01-24T18:16:07.907Z,26.90
2019-01-24T18:18:37.926Z,24.80
2019-01-24T18:21:07.065Z,25.10
2019-01-24T18:23:36.088Z,26.07
2019-01-24T18:26:05.510Z,26.70
2019-01-24T18:28:34.544Z,26.07
2019-01-24T18:31:03.597Z,26.37
2019-01-24T18:33:32.602Z,24.37
2019-01-24T18:36:01.584Z,25.67
2019-01-24T18:38:30.545Z,25.30
2019-01-24T18:40:59.605Z,26.73
2019-01-24T18:43:29.387Z,25.27
2019-01-24T18:46:00.452Z,25.43
2019-01-24T18:48:29.512Z,26.47
2019-01-24T18:50:58.586Z,26.43
2019-01-24T18:53:27.591Z,25.37
2019-01-24T18:55:56.570Z,25.43
2019-01-24T18:58:25.532Z,26.73
2019-01-24T19:00:54.942Z,27.67
2019-01-24T19:03:24.071Z,24.80
2019-01-24T19:05:53.075Z,26.07
2019-01-24T19:08:22.138Z,26.50
2019-01-24T19:10:51.642Z,24.97
2019-01-24T19:13:20.987Z,26.20
2019-01-24T19:15:50.967Z,26.07
2019-01-24T19:18:20.132Z,29.27
2019-01-24T19:20:49.414Z,27.50
2019-01-24T19:23:18.408Z,26.13
2019-01-24T19:25:47.471Z,26.77
2019-01-24T19:28:18.033Z,26.30
2019-01-24T19:30:47.102Z,24.43
2019-01-24T19:33:16.339Z,25.47
2019-01-24T19:35:45.418Z,26.50
2019-01-24T19:38:14.432Z,25.43
2019-01-24T19:40:44.439Z,27.00
2019-01-24T19:43:13.581Z,27.07
2019-01-24T19:45:44.091Z,26.97
2019-01-24T19:48:13.291Z,25.80
2019-01-24T19:50:42.299Z,28.20
2019-01-24T19:53:11.404Z,26.17
2019-01-24T19:55:40.306Z,27.30
2019-01-24T19:58:09.334Z,25.20
2019-01-24T20:00:38.330Z,26.10
2019-01-24T20:03:08.163Z,26.67
2019-01-24T20:05:37.769Z,26.53
2019-01-24T20:08:07.455Z,26.40
2019-01-24T20:10:36.920Z,27.50
2019-01-24T20:13:06.320Z,25.37
2019-01-24T20:15:35.413Z,25.67
2019-01-24T20:18:05.130Z,26.93
2019-01-24T20:20:34.183Z,27.03
2019-01-24T20:23:03.242Z,24.97
2019-01-24T20:25:32.784Z,25.73
2019-01-24T20:28:01.748Z,27.40
2019-01-24T20:30:32.017Z,27.47
2019-01-24T20:33:01.984Z,26.23
2019-01-24T20:35:49.524Z,27.70
2019-01-24T20:38:18.950Z,26.30
2019-01-24T20:40:48.033Z,23.77
2019-01-24T20:43:53.149Z,25.20
2019-01-24T20:46:22.224Z,24.50
2019-01-24T20:48:51.319Z,27.30
2019-01-24T20:51:38.654Z,26.97
2019-01-24T20:54:07.788Z,26.90
2019-01-24T20:56:36.989Z,26.77
2019-01-24T20:59:06.159Z,25.90
2019-01-24T21:01:35.133Z,24.77
2019-01-24T21:04:16.587Z,27.03
2019-01-24T21:06:46.086Z,24.80
2019-01-24T21:09:15.217Z,24.07
2019-01-24T21:11:44.609Z,25.30
2019-01-24T21:14:13.837Z,24.80
2019-01-24T21:16:42.983Z,24.83
2019-01-24T21:19:12.080Z,25.80
2019-01-24T21:21:41.197Z,25.20
2019-01-24T21:24:10.136Z,26.60
2019-01-24T21:26:39.167Z,24.20
2019-01-24T21:32:36.789Z,24.57
2019-01-24T21:35:06.235Z,25.87
2019-01-24T21:37:35.330Z,23.97
2019-01-24T21:40:04.694Z,25.37
2019-01-24T21:46:02.245Z,24.50
2019-01-24T21:48:31.292Z,25.47
2019-01-24T21:51:00.385Z,23.93
2019-01-24T21:53:29.514Z,25.73
2019-01-24T21:55:59.107Z,25.57
2019-01-24T21:58:28.078Z,25.27
2019-01-24T22:00:57.202Z,24.73
2019-01-24T22:03:26.212Z,24.67
2019-01-24T22:05:55.394Z,24.50
2019-01-24T22:08:25.319Z,24.20
2019-01-24T22:14:22.584Z,23.27
2019-01-24T22:16:51.529Z,24.07
2019-01-24T22:19:20.531Z,24.97
2019-01-24T22:21:49.359Z,24.70
2019-01-24T22:24:18.412Z,24.57
2019-01-24T22:26:59.835Z,24.70
2019-01-24T22:29:28.750Z,24.53
2019-01-24T22:31:57.671Z,24.17
2019-01-24T22:34:26.583Z,24.73
2019-01-24T22:36:55.592Z,24.80
2019-01-24T22:39:24.563Z,25.20
2019-01-24T22:41:53.465Z,24.80
2019-01-24T22:44:22.427Z,24.50
2019-01-24T22:46:51.400Z,23.23
2019-01-24T22:49:20.418Z,22.93
2019-01-24T22:51:49.411Z,24.63
2019-01-24T22:54:18.420Z,23.97
2019-01-24T22:56:47.369Z,24.07
2019-01-24T22:59:16.246Z,24.00
2019-01-24T23:01:59.161Z,24.80
2019-01-24T23:04:28.142Z,23.07
2019-01-24T23:06:57.015Z,23.70
2019-01-24T23:09:25.978Z,23.33
2019-01-24T23:11:54.844Z,23.03
2019-01-24T23:14:23.889Z,25.10
2019-01-24T23:16:52.802Z,26.33
2019-01-24T23:19:21.789Z,25.40
2019-01-24T23:21:50.693Z,24.60
2019-01-24T23:24:19.676Z,25.23
2019-01-24T23:26:48.665Z,24.97
2019-01-24T23:29:17.586Z,24.93
2019-01-24T23:31:46.669Z,24.90
2019-01-24T23:34:15.502Z,24.03
2019-01-24T23:36:44.519Z,24.47
2019-01-24T23:39:13.509Z,24.77
2019-01-24T23:41:42.489Z,23.87
2019-01-24T23:44:11.445Z,24.20
2019-01-24T23:46:40.416Z,23.17
2019-01-24T23:49:09.403Z,23.60
2019-01-24T23:51:38.417Z,23.17
2019-01-24T23:54:07.312Z,23.43
2019-01-24T23:56:36.352Z,22.97
2019-01-24T23:59:05.461Z,24.57
